sensor_id;sensor_type;location;lat;lon;timestamp;P1;durP1;ratioP1;P2;durP2;ratioP2
8913;SDS011;4492;48.736;9.092;2022-09-12T00:01:16;12.90;;;9.17;;
8913;SDS011;4492;48.736;9.092;2022-09-12T00:03:43;14.07;;;9.23;;
8913;SDS011;4492;48.736;9.092;2022-09-12T00:06:21;11.97;;;9.13;;
8913;SDS011;4492;48.736;9.092;2022-09-12T00:09:02;11.80;;;9.00;;
8913;SDS011;4492;48.736;9.092;2022-09-12T00:11:30;11.90;;;8.87;;
8913;SDS011;4492;48.736;9.092;2022-09-12T00:13:59;13.90;;;9.27;;
8913;SDS011;4492;48.736;9.092;2022-09-12T00:16:26;13.30;;;9.93;;
8913;SDS011;4492;48.736;9.092;2022-09-12T00:18:53;12.30;;;9.63;;
8913;SDS011;4492;48.736;9.092;2022-09-12T00:21:19;13.33;;;9.60;;
8913;SDS011;4492;48.736;9.092;2022-09-12T00:23:46;11.53;;;9.03;;
8913;SDS011;4492;48.736;9.092;2022-09-12T00:26:12;13.27;;;9.40;;
8913;SDS011;4492;48.736;9.092;2022-09-12T00:28:39;10.40;;;8.33;;
8913;SDS011;4492;48.736;9.092;2022-09-12T00:31:06;11.40;;;9.17;;
8913;SDS011;4492;48.736;9.092;2022-09-12T00:33:36;10.03;;;8.43;;
8913;SDS011;4492;48.736;9.092;2022-09-12T00:36:03;12.13;;;9.03;;
8913;SDS011;4492;48.736;9.092;2022-09-12T00:38:30;12.80;;;8.87;;
8913;SDS011;4492;48.736;9.092;2022-09-12T00:40:55;10.87;;;9.20;;
8913;SDS011;4492;48.736;9.092;2022-09-12T00:43:40;11.33;;;8.87;;
8913;SDS011;4492;48.736;9.092;2022-09-12T00:46:25;12.20;;;9.40;;
8913;SDS011;4492;48.736;9.092;2022-09-12T00:49:14;11.97;;;8.90;;
8913;SDS011;4492;48.736;9.092;2022-09-12T00:51:57;10.20;;;8.40;;
8913;SDS011;4492;48.736;9.092;2022-09-12T00:54:31;10.77;;;8.20;;
8913;SDS011;4492;48.736;9.092;2022-09-12T00:57:05;11.13;;;8.77;;
8913;SDS011;4492;48.736;9.092;2022-09-12T00:59:45;11.00;;;8.97;;
8913;SDS011;4492;48.736;9.092;2022-09-12T01:02:16;10.67;;;8.43;;
8913;SDS011;4492;48.736;9.092;2022-09-12T01:04:45;12.33;;;9.17;;
8913;SDS011;4492;48.736;9.092;2022-09-12T01:07:12;14.13;;;9.53;;
8913;SDS011;4492;48.736;9.092;2022-09-12T01:09:39;10.17;;;8.23;;
8913;SDS011;4492;48.736;9.092;2022-09-12T01:12:07;11.90;;;8.43;;
8913;SDS011;4492;48.736;9.092;2022-09-12T01:14:34;11.47;;;8.93;;
8913;SDS011;4492;48.736;9.092;2022-09-12T01:16:59;12.07;;;9.23;;
8913;SDS011;4492;48.736;9.092;2022-09-12T01:22:19;10.73;;;7.97;;
8913;SDS011;4492;48.736;9.092;2022-09-12T01:25:09;9.07;;;7.50;;
8913;SDS011;4492;48.736;9.092;2022-09-12T01:27:45;9.63;;;8.17;;
8913;SDS011;4492;48.736;9.092;2022-09-12T01:36:21;8.60;;;7.37;;
8913;SDS011;4492;48.736;9.092;2022-09-12T01:38:54;9.90;;;8.07;;
8913;SDS011;4492;48.736;9.092;2022-09-12T01:41:26;13.83;;;7.57;;
8913;SDS011;4492;48.736;9.092;2022-09-12T01:44:07;9.03;;;7.63;;
8913;SDS011;4492;48.736;9.092;2022-09-12T01:55:01;11.43;;;8.00;;
8913;SDS011;4492;48.736;9.092;2022-09-12T02:01:13;11.37;;;8.67;;
8913;SDS011;4492;48.736;9.092;2022-09-12T02:03:50;10.57;;;8.67;;
8913;SDS011;4492;48.736;9.092;2022-09-12T02:06:30;10.93;;;8.50;;
8913;SDS011;4492;48.736;9.092;2022-09-12T02:10:02;13.50;;;7.80;;
8913;SDS011;4492;48.736;9.092;2022-09-12T02:12:00;10.30;;;8.47;;
8913;SDS011;4492;48.736;9.092;2022-09-12T02:14:28;8.77;;;7.47;;
8913;SDS011;4492;48.736;9.092;2022-09-12T02:16:58;11.80;;;8.47;;
8913;SDS011;4492;48.736;9.092;2022-09-12T02:19:31;11.40;;;8.80;;
8913;SDS011;4492;48.736;9.092;2022-09-12T02:22:01;12.50;;;9.10;;
8913;SDS011;4492;48.736;9.092;2022-09-12T02:24:29;10.20;;;8.50;;
8913;SDS011;4492;48.736;9.092;2022-09-12T02:27:05;11.73;;;9.17;;
8913;SDS011;4492;48.736;9.092;2022-09-12T02:29:37;11.70;;;9.17;;
8913;SDS011;4492;48.736;9.092;2022-09-12T02:32:04;12.53;;;9.00;;
8913;SDS011;4492;48.736;9.092;2022-09-12T02:40:24;10.30;;;8.57;;
8913;SDS011;4492;48.736;9.092;2022-09-12T02:42:50;10.47;;;8.13;;
8913;SDS011;4492;48.736;9.092;2022-09-12T02:45:16;10.33;;;8.50;;
8913;SDS011;4492;48.736;9.092;2022-09-12T02:47:46;11.80;;;8.73;;
8913;SDS011;4492;48.736;9.092;2022-09-12T02:50:16;12.47;;;9.70;;
8913;SDS011;4492;48.736;9.092;2022-09-12T02:52:42;12.93;;;9.20;;
8913;SDS011;4492;48.736;9.092;2022-09-12T02:55:08;14.27;;;9.63;;
8913;SDS011;4492;48.736;9.092;2022-09-12T02:57:37;10.87;;;9.33;;
8913;SDS011;4492;48.736;9.092;2022-09-12T03:00:03;14.57;;;10.03;;
8913;SDS011;4492;48.736;9.092;2022-09-12T03:05:33;12.90;;;9.73;;
8913;SDS011;4492;48.736;9.092;2022-09-12T03:13:55;11.40;;;9.47;;
8913;SDS011;4492;48.736;9.092;2022-09-12T03:19:32;11.33;;;9.10;;
8913;SDS011;4492;48.736;9.092;2022-09-12T03:22:25;17.77;;;10.00;;
8913;SDS011;4492;48.736;9.092;2022-09-12T03:27:34;12.63;;;9.57;;
8913;SDS011;4492;48.736;9.092;2022-09-12T03:30:04;14.13;;;9.07;;
8913;SDS011;4492;48.736;9.092;2022-09-12T03:32:41;15.10;;;9.53;;
8913;SDS011;4492;48.736;9.092;2022-09-12T03:35:17;12.93;;;9.50;;
8913;SDS011;4492;48.736;9.092;2022-09-12T03:37:45;13.07;;;9.77;;
8913;SDS011;4492;48.736;9.092;2022-09-12T03:40:12;13.77;;;9.77;;
8913;SDS011;4492;48.736;9.092;2022-09-12T03:42:38;14.67;;;11.00;;
8913;SDS011;4492;48.736;9.092;2022-09-12T03:45:04;15.70;;;10.03;;
8913;SDS011;4492;48.736;9.092;2022-09-12T03:47:30;13.27;;;10.10;;
8913;SDS011;4492;48.736;9.092;2022-09-12T03:49:56;14.03;;;10.20;;
8913;SDS011;4492;48.736;9.092;2022-09-12T03:52:21;14.53;;;10.40;;
8913;SDS011;4492;48.736;9.092;2022-09-12T03:54:47;13.90;;;10.63;;
8913;SDS011;4492;48.736;9.092;2022-09-12T03:57:13;13.37;;;10.03;;
8913;SDS011;4492;48.736;9.092;2022-09-12T03:59:39;13.33;;;9.93;;
8913;SDS011;4492;48.736;9.092;2022-09-12T04:02:04;16.00;;;10.87;;
8913;SDS011;4492;48.736;9.092;2022-09-12T04:04:30;13.40;;;10.20;;
8913;SDS011;4492;48.736;9.092;2022-09-12T04:06:56;13.83;;;9.73;;
8913;SDS011;4492;48.736;9.092;2022-09-12T04:09:21;13.57;;;9.77;;
8913;SDS011;4492;48.736;9.092;2022-09-12T04:11:47;14.50;;;9.13;;
8913;SDS011;4492;48.736;9.092;2022-09-12T04:14:12;11.50;;;8.57;;
8913;SDS011;4492;48.736;9.092;2022-09-12T04:16:38;11.07;;;8.57;;
8913;SDS011;4492;48.736;9.092;2022-09-12T04:19:03;11.47;;;8.67;;
8913;SDS011;4492;48.736;9.092;2022-09-12T04:21:29;10.53;;;8.80;;
8913;SDS011;4492;48.736;9.092;2022-09-12T04:23:55;10.87;;;9.07;;
8913;SDS011;4492;48.736;9.092;2022-09-12T04:26:20;11.50;;;9.17;;
8913;SDS011;4492;48.736;9.092;2022-09-12T04:28:46;14.20;;;9.60;;
8913;SDS011;4492;48.736;9.092;2022-09-12T04:31:14;15.23;;;9.80;;
8913;SDS011;4492;48.736;9.092;2022-09-12T04:33:42;12.57;;;8.37;;
8913;SDS011;4492;48.736;9.092;2022-09-12T04:36:09;14.07;;;8.83;;
8913;SDS011;4492;48.736;9.092;2022-09-12T04:38:40;13.50;;;8.30;;
8913;SDS011;4492;48.736;9.092;2022-09-12T04:41:11;12.03;;;8.90;;
8913;SDS011;4492;48.736;9.092;2022-09-12T04:43:37;11.60;;;9.00;;
8913;SDS011;4492;48.736;9.092;2022-09-12T04:46:06;13.80;;;9.23;;
8913;SDS011;4492;48.736;9.092;2022-09-12T04:48:33;15.97;;;9.60;;
8913;SDS011;4492;48.736;9.092;2022-09-12T04:53:37;12.33;;;8.10;;
8913;SDS011;4492;48.736;9.092;2022-09-12T04:56:04;8.53;;;7.37;;
8913;SDS011;4492;48.736;9.092;2022-09-12T04:58:31;10.67;;;8.03;;
8913;SDS011;4492;48.736;9.092;2022-09-12T05:01:15;11.13;;;7.80;;
8913;SDS011;4492;48.736;9.092;2022-09-12T05:03:43;13.37;;;7.20;;
8913;SDS011;4492;48.736;9.092;2022-09-12T05:06:10;9.80;;;7.83;;
8913;SDS011;4492;48.736;9.092;2022-09-12T05:08:41;9.57;;;7.10;;
8913;SDS011;4492;48.736;9.092;2022-09-12T05:11:09;13.77;;;8.43;;
8913;SDS011;4492;48.736;9.092;2022-09-12T05:13:36;12.43;;;7.97;;
8913;SDS011;4492;48.736;9.092;2022-09-12T05:16:03;10.43;;;7.57;;
8913;SDS011;4492;48.736;9.092;2022-09-12T05:18:31;12.30;;;7.90;;
8913;SDS011;4492;48.736;9.092;2022-09-12T05:21:01;12.63;;;9.03;;
8913;SDS011;4492;48.736;9.092;2022-09-12T05:23:29;12.40;;;8.63;;
8913;SDS011;4492;48.736;9.092;2022-09-12T05:25:55;14.50;;;9.97;;
8913;SDS011;4492;48.736;9.092;2022-09-12T05:28:22;12.17;;;9.23;;
8913;SDS011;4492;48.736;9.092;2022-09-12T05:33:49;18.23;;;11.97;;
8913;SDS011;4492;48.736;9.092;2022-09-12T05:36:17;17.80;;;11.80;;
8913;SDS011;4492;48.736;9.092;2022-09-12T05:38:44;16.23;;;10.63;;
8913;SDS011;4492;48.736;9.092;2022-09-12T05:41:14;15.80;;;11.33;;
8913;SDS011;4492;48.736;9.092;2022-09-12T05:43:41;17.87;;;11.73;;
8913;SDS011;4492;48.736;9.092;2022-09-12T05:46:11;18.70;;;11.50;;
8913;SDS011;4492;48.736;9.092;2022-09-12T05:48:38;16.73;;;11.40;;
8913;SDS011;4492;48.736;9.092;2022-09-12T05:51:06;16.33;;;11.73;;
8913;SDS011;4492;48.736;9.092;2022-09-12T05:53:37;16.23;;;11.03;;
8913;SDS011;4492;48.736;9.092;2022-09-12T05:56:04;15.77;;;10.73;;
8913;SDS011;4492;48.736;9.092;2022-09-12T05:58:35;15.47;;;10.00;;
8913;SDS011;4492;48.736;9.092;2022-09-12T06:01:13;14.80;;;10.57;;
8913;SDS011;4492;48.736;9.092;2022-09-12T06:03:40;15.10;;;9.97;;
8913;SDS011;4492;48.736;9.092;2022-09-12T06:06:08;17.27;;;11.17;;
8913;SDS011;4492;48.736;9.092;2022-09-12T06:08:37;15.77;;;10.53;;
8913;SDS011;4492;48.736;9.092;2022-09-12T06:11:05;17.50;;;12.20;;
8913;SDS011;4492;48.736;9.092;2022-09-12T06:13:32;16.30;;;12.37;;
8913;SDS011;4492;48.736;9.092;2022-09-12T06:16:02;18.03;;;12.63;;
8913;SDS011;4492;48.736;9.092;2022-09-12T06:18:29;17.43;;;12.30;;
8913;SDS011;4492;48.736;9.092;2022-09-12T06:20:55;21.43;;;13.00;;
8913;SDS011;4492;48.736;9.092;2022-09-12T06:23:20;14.07;;;10.67;;
8913;SDS011;4492;48.736;9.092;2022-09-12T06:25:47;19.70;;;11.47;;
8913;SDS011;4492;48.736;9.092;2022-09-12T06:28:16;16.83;;;11.87;;
8913;SDS011;4492;48.736;9.092;2022-09-12T06:30:41;14.13;;;10.47;;
8913;SDS011;4492;48.736;9.092;2022-09-12T06:33:07;15.63;;;11.60;;
8913;SDS011;4492;48.736;9.092;2022-09-12T06:35:36;14.83;;;10.83;;
8913;SDS011;4492;48.736;9.092;2022-09-12T06:38:03;13.90;;;10.73;;
8913;SDS011;4492;48.736;9.092;2022-09-12T06:40:29;14.33;;;10.47;;
8913;SDS011;4492;48.736;9.092;2022-09-12T06:42:55;13.80;;;10.37;;
8913;SDS011;4492;48.736;9.092;2022-09-12T06:45:20;12.43;;;11.13;;
8913;SDS011;4492;48.736;9.092;2022-09-12T06:47:46;13.37;;;10.23;;
8913;SDS011;4492;48.736;9.092;2022-09-12T06:50:12;11.37;;;10.03;;
8913;SDS011;4492;48.736;9.092;2022-09-12T06:52:38;12.43;;;9.83;;
8913;SDS011;4492;48.736;9.092;2022-09-12T06:55:03;12.30;;;8.83;;
8913;SDS011;4492;48.736;9.092;2022-09-12T06:57:29;10.07;;;8.33;;
8913;SDS011;4492;48.736;9.092;2022-09-12T06:59:56;8.77;;;7.87;;
8913;SDS011;4492;48.736;9.092;2022-09-12T07:02:22;10.67;;;7.80;;
8913;SDS011;4492;48.736;9.092;2022-09-12T07:04:49;9.53;;;8.30;;
8913;SDS011;4492;48.736;9.092;2022-09-12T07:07:15;9.67;;;7.03;;
8913;SDS011;4492;48.736;9.092;2022-09-12T07:09:41;9.53;;;7.00;;
8913;SDS011;4492;48.736;9.092;2022-09-12T07:12:07;6.87;;;5.77;;
8913;SDS011;4492;48.736;9.092;2022-09-12T07:14:32;7.40;;;6.60;;
8913;SDS011;4492;48.736;9.092;2022-09-12T07:16:58;6.43;;;5.87;;
8913;SDS011;4492;48.736;9.092;2022-09-12T07:19:23;4.80;;;4.30;;
8913;SDS011;4492;48.736;9.092;2022-09-12T07:21:49;4.97;;;4.47;;
8913;SDS011;4492;48.736;9.092;2022-09-12T07:24:14;4.70;;;4.30;;
8913;SDS011;4492;48.736;9.092;2022-09-12T07:26:40;4.97;;;4.30;;
8913;SDS011;4492;48.736;9.092;2022-09-12T07:29:06;4.33;;;3.93;;
8913;SDS011;4492;48.736;9.092;2022-09-12T07:31:36;4.27;;;3.97;;
8913;SDS011;4492;48.736;9.092;2022-09-12T07:34:03;3.90;;;3.63;;
8913;SDS011;4492;48.736;9.092;2022-09-12T07:36:30;5.10;;;4.60;;
8913;SDS011;4492;48.736;9.092;2022-09-12T07:38:55;3.80;;;3.60;;
8913;SDS011;4492;48.736;9.092;2022-09-12T07:41:23;4.30;;;3.90;;
8913;SDS011;4492;48.736;9.092;2022-09-12T07:44:00;4.63;;;3.93;;
8913;SDS011;4492;48.736;9.092;2022-09-12T07:46:27;3.70;;;3.37;;
8913;SDS011;4492;48.736;9.092;2022-09-12T07:48:54;3.37;;;3.17;;
8913;SDS011;4492;48.736;9.092;2022-09-12T07:51:21;4.10;;;3.80;;
8913;SDS011;4492;48.736;9.092;2022-09-12T07:53:48;3.60;;;3.33;;
8913;SDS011;4492;48.736;9.092;2022-09-12T07:56:16;3.43;;;3.23;;
8913;SDS011;4492;48.736;9.092;2022-09-12T07:58:42;5.90;;;3.40;;
8913;SDS011;4492;48.736;9.092;2022-09-12T08:03:36;3.40;;;3.10;;
8913;SDS011;4492;48.736;9.092;2022-09-12T08:06:03;3.30;;;3.00;;
8913;SDS011;4492;48.736;9.092;2022-09-12T08:08:29;3.27;;;2.97;;
8913;SDS011;4492;48.736;9.092;2022-09-12T08:10:58;3.40;;;3.20;;
8913;SDS011;4492;48.736;9.092;2022-09-12T08:13:25;3.20;;;3.00;;
8913;SDS011;4492;48.736;9.092;2022-09-12T08:15:56;2.93;;;2.73;;
8913;SDS011;4492;48.736;9.092;2022-09-12T08:18:26;2.80;;;2.60;;
8913;SDS011;4492;48.736;9.092;2022-09-12T08:20:58;2.87;;;2.67;;
8913;SDS011;4492;48.736;9.092;2022-09-12T08:23:26;3.33;;;2.80;;
8913;SDS011;4492;48.736;9.092;2022-09-12T08:25:56;2.83;;;2.53;;
8913;SDS011;4492;48.736;9.092;2022-09-12T08:28:23;2.70;;;2.50;;
8913;SDS011;4492;48.736;9.092;2022-09-12T08:30:50;3.10;;;2.90;;
8913;SDS011;4492;48.736;9.092;2022-09-12T08:33:15;3.13;;;2.90;;
8913;SDS011;4492;48.736;9.092;2022-09-12T08:35:41;2.73;;;2.60;;
8913;SDS011;4492;48.736;9.092;2022-09-12T08:38:07;3.10;;;2.90;;
8913;SDS011;4492;48.736;9.092;2022-09-12T08:40:32;2.90;;;2.70;;
8913;SDS011;4492;48.736;9.092;2022-09-12T08:43:26;2.67;;;2.50;;
8913;SDS011;4492;48.736;9.092;2022-09-12T08:46:01;4.17;;;2.70;;
8913;SDS011;4492;48.736;9.092;2022-09-12T08:48:44;2.93;;;2.73;;
8913;SDS011;4492;48.736;9.092;2022-09-12T08:51:11;3.00;;;2.77;;
8913;SDS011;4492;48.736;9.092;2022-09-12T08:53:40;3.30;;;3.00;;
8913;SDS011;4492;48.736;9.092;2022-09-12T08:56:08;3.50;;;3.03;;
8913;SDS011;4492;48.736;9.092;2022-09-12T08:58:41;3.43;;;3.00;;
8913;SDS011;4492;48.736;9.092;2022-09-12T09:01:29;3.87;;;3.43;;
8913;SDS011;4492;48.736;9.092;2022-09-12T09:15:50;6.37;;;3.53;;
8913;SDS011;4492;48.736;9.092;2022-09-12T09:18:31;7.33;;;3.90;;
8913;SDS011;4492;48.736;9.092;2022-09-12T09:21:11;3.20;;;3.00;;
8913;SDS011;4492;48.736;9.092;2022-09-12T09:23:45;4.10;;;3.23;;
8913;SDS011;4492;48.736;9.092;2022-09-12T09:26:25;4.73;;;3.30;;
8913;SDS011;4492;48.736;9.092;2022-09-12T09:29:10;4.33;;;3.40;;
8913;SDS011;4492;48.736;9.092;2022-09-12T09:31:43;4.17;;;3.43;;
8913;SDS011;4492;48.736;9.092;2022-09-12T09:34:23;3.30;;;3.00;;
8913;SDS011;4492;48.736;9.092;2022-09-12T09:37:13;3.90;;;2.97;;
8913;SDS011;4492;48.736;9.092;2022-09-12T09:40:16;4.50;;;3.30;;
8913;SDS011;4492;48.736;9.092;2022-09-12T09:42:57;3.17;;;2.87;;
8913;SDS011;4492;48.736;9.092;2022-09-12T09:45:42;3.03;;;2.83;;
8913;SDS011;4492;48.736;9.092;2022-09-12T09:50:51;2.73;;;2.53;;
8913;SDS011;4492;48.736;9.092;2022-09-12T09:56:12;2.53;;;2.43;;
8913;SDS011;4492;48.736;9.092;2022-09-12T09:58:47;2.53;;;2.40;;
8913;SDS011;4492;48.736;9.092;2022-09-12T10:01:16;2.40;;;2.30;;
8913;SDS011;4492;48.736;9.092;2022-09-12T10:03:46;2.43;;;2.23;;
8913;SDS011;4492;48.736;9.092;2022-09-12T10:08:50;2.43;;;2.33;;
8913;SDS011;4492;48.736;9.092;2022-09-12T10:11:17;2.50;;;2.40;;
8913;SDS011;4492;48.736;9.092;2022-09-12T10:13:55;2.23;;;2.13;;
8913;SDS011;4492;48.736;9.092;2022-09-12T10:16:23;2.30;;;2.20;;
8913;SDS011;4492;48.736;9.092;2022-09-12T10:18:54;2.03;;;1.90;;
8913;SDS011;4492;48.736;9.092;2022-09-12T10:24:26;2.10;;;2.00;;
8913;SDS011;4492;48.736;9.092;2022-09-12T10:29:30;2.30;;;2.10;;
8913;SDS011;4492;48.736;9.092;2022-09-12T10:31:58;2.73;;;1.90;;
8913;SDS011;4492;48.736;9.092;2022-09-12T10:34:34;1.80;;;1.70;;
8913;SDS011;4492;48.736;9.092;2022-09-12T10:37:04;1.90;;;1.80;;
8913;SDS011;4492;48.736;9.092;2022-09-12T10:39:36;3.20;;;1.87;;
8913;SDS011;4492;48.736;9.092;2022-09-12T10:42:03;1.80;;;1.70;;
8913;SDS011;4492;48.736;9.092;2022-09-12T10:44:33;1.90;;;1.80;;
8913;SDS011;4492;48.736;9.092;2022-09-12T10:46:59;2.10;;;1.90;;
8913;SDS011;4492;48.736;9.092;2022-09-12T10:49:43;2.00;;;1.90;;
8913;SDS011;4492;48.736;9.092;2022-09-12T10:52:42;1.87;;;1.77;;
8913;SDS011;4492;48.736;9.092;2022-09-12T10:55:01;2.03;;;1.90;;
8913;SDS011;4492;48.736;9.092;2022-09-12T11:00:13;1.57;;;1.47;;
8913;SDS011;4492;48.736;9.092;2022-09-12T11:05:49;1.70;;;1.60;;
8913;SDS011;4492;48.736;9.092;2022-09-12T11:10:58;2.00;;;1.90;;
8913;SDS011;4492;48.736;9.092;2022-09-12T11:13:36;1.90;;;1.80;;
8913;SDS011;4492;48.736;9.092;2022-09-12T11:18:35;1.80;;;1.70;;
8913;SDS011;4492;48.736;9.092;2022-09-12T11:24:15;1.80;;;1.70;;
8913;SDS011;4492;48.736;9.092;2022-09-12T11:31:55;1.90;;;1.80;;
8913;SDS011;4492;48.736;9.092;2022-09-12T11:34:34;1.30;;;1.27;;
8913;SDS011;4492;48.736;9.092;2022-09-12T11:37:36;1.73;;;1.63;;
8913;SDS011;4492;48.736;9.092;2022-09-12T11:40:41;1.70;;;1.60;;
8913;SDS011;4492;48.736;9.092;2022-09-12T11:46:17;1.60;;;1.50;;
8913;SDS011;4492;48.736;9.092;2022-09-12T11:49:03;2.00;;;1.60;;
8913;SDS011;4492;48.736;9.092;2022-09-12T11:51:32;1.90;;;1.60;;
8913;SDS011;4492;48.736;9.092;2022-09-12T11:54:05;1.67;;;1.57;;
8913;SDS011;4492;48.736;9.092;2022-09-12T11:56:46;1.73;;;1.63;;
8913;SDS011;4492;48.736;9.092;2022-09-12T11:59:19;1.30;;;1.30;;
8913;SDS011;4492;48.736;9.092;2022-09-12T12:01:55;1.47;;;1.37;;
8913;SDS011;4492;48.736;9.092;2022-09-12T12:04:24;1.60;;;1.50;;
8913;SDS011;4492;48.736;9.092;2022-09-12T12:07:02;1.60;;;1.50;;
8913;SDS011;4492;48.736;9.092;2022-09-12T12:09:31;1.43;;;1.43;;
8913;SDS011;4492;48.736;9.092;2022-09-12T12:11:57;2.10;;;2.00;;
8913;SDS011;4492;48.736;9.092;2022-09-12T12:14:49;1.70;;;1.60;;
8913;SDS011;4492;48.736;9.092;2022-09-12T12:17:15;1.17;;;1.17;;
8913;SDS011;4492;48.736;9.092;2022-09-12T12:19:43;2.17;;;1.70;;
8913;SDS011;4492;48.736;9.092;2022-09-12T12:22:14;1.43;;;1.40;;
8913;SDS011;4492;48.736;9.092;2022-09-12T12:24:54;1.30;;;1.30;;
8913;SDS011;4492;48.736;9.092;2022-09-12T12:38:00;1.50;;;1.40;;
8913;SDS011;4492;48.736;9.092;2022-09-12T12:40:28;1.40;;;1.30;;
8913;SDS011;4492;48.736;9.092;2022-09-12T12:47:59;1.03;;;1.03;;
8913;SDS011;4492;48.736;9.092;2022-09-12T12:50:31;1.00;;;1.00;;
8913;SDS011;4492;48.736;9.092;2022-09-12T12:53:04;1.00;;;1.00;;
8913;SDS011;4492;48.736;9.092;2022-09-12T13:01:04;2.13;;;1.23;;
8913;SDS011;4492;48.736;9.092;2022-09-12T13:03:36;1.20;;;1.10;;
8913;SDS011;4492;48.736;9.092;2022-09-12T13:06:04;1.13;;;1.13;;
8913;SDS011;4492;48.736;9.092;2022-09-12T13:08:34;2.10;;;2.00;;
8913;SDS011;4492;48.736;9.092;2022-09-12T13:11:10;1.20;;;1.20;;
8913;SDS011;4492;48.736;9.092;2022-09-12T13:13:40;4.93;;;1.20;;
8913;SDS011;4492;48.736;9.092;2022-09-12T13:16:15;1.10;;;1.10;;
8913;SDS011;4492;48.736;9.092;2022-09-12T13:18:56;1.63;;;0.90;;
8913;SDS011;4492;48.736;9.092;2022-09-12T13:21:28;1.40;;;0.90;;
8913;SDS011;4492;48.736;9.092;2022-09-12T13:26:26;1.20;;;1.10;;
8913;SDS011;4492;48.736;9.092;2022-09-12T13:29:07;0.90;;;0.90;;
8913;SDS011;4492;48.736;9.092;2022-09-12T13:31:34;1.10;;;1.10;;
8913;SDS011;4492;48.736;9.092;2022-09-12T13:34:00;1.00;;;1.00;;
8913;SDS011;4492;48.736;9.092;2022-09-12T13:42:02;1.27;;;1.00;;
8913;SDS011;4492;48.736;9.092;2022-09-12T13:47:51;1.80;;;1.00;;
8913;SDS011;4492;48.736;9.092;2022-09-12T13:50:25;1.20;;;1.10;;
8913;SDS011;4492;48.736;9.092;2022-09-12T13:52:57;1.80;;;1.70;;
8913;SDS011;4492;48.736;9.092;2022-09-12T13:55:30;1.50;;;1.33;;
8913;SDS011;4492;48.736;9.092;2022-09-12T13:58:01;0.90;;;0.90;;
8913;SDS011;4492;48.736;9.092;2022-09-12T14:00:58;0.90;;;0.90;;
8913;SDS011;4492;48.736;9.092;2022-09-12T14:03:27;1.07;;;1.07;;
8913;SDS011;4492;48.736;9.092;2022-09-12T14:06:14;1.10;;;1.00;;
8913;SDS011;4492;48.736;9.092;2022-09-12T14:08:43;0.93;;;0.93;;
8913;SDS011;4492;48.736;9.092;2022-09-12T14:11:11;1.13;;;1.03;;
8913;SDS011;4492;48.736;9.092;2022-09-12T14:13:51;0.90;;;0.90;;
8913;SDS011;4492;48.736;9.092;2022-09-12T14:16:18;0.80;;;0.80;;
8913;SDS011;4492;48.736;9.092;2022-09-12T14:18:45;0.90;;;0.90;;
8913;SDS011;4492;48.736;9.092;2022-09-12T14:24:05;1.00;;;1.00;;
8913;SDS011;4492;48.736;9.092;2022-09-12T14:26:33;1.27;;;1.13;;
8913;SDS011;4492;48.736;9.092;2022-09-12T14:29:00;1.07;;;1.07;;
8913;SDS011;4492;48.736;9.092;2022-09-12T14:31:30;0.97;;;0.97;;
8913;SDS011;4492;48.736;9.092;2022-09-12T14:34:09;0.90;;;0.90;;
8913;SDS011;4492;48.736;9.092;2022-09-12T14:36:47;1.80;;;1.07;;
8913;SDS011;4492;48.736;9.092;2022-09-12T14:39:33;2.30;;;1.17;;
8913;SDS011;4492;48.736;9.092;2022-09-12T14:44:37;1.20;;;1.20;;
8913;SDS011;4492;48.736;9.092;2022-09-12T14:47:11;1.00;;;1.00;;
8913;SDS011;4492;48.736;9.092;2022-09-12T14:49:39;0.83;;;0.83;;
8913;SDS011;4492;48.736;9.092;2022-09-12T14:52:07;1.07;;;1.07;;
8913;SDS011;4492;48.736;9.092;2022-09-12T14:54:57;1.00;;;1.00;;
8913;SDS011;4492;48.736;9.092;2022-09-12T14:57:33;2.53;;;1.63;;
8913;SDS011;4492;48.736;9.092;2022-09-12T15:00:09;1.03;;;1.03;;
8913;SDS011;4492;48.736;9.092;2022-09-12T15:02:39;1.10;;;1.10;;
8913;SDS011;4492;48.736;9.092;2022-09-12T15:07:32;1.43;;;1.17;;
8913;SDS011;4492;48.736;9.092;2022-09-12T15:10:19;1.13;;;1.13;;
8913;SDS011;4492;48.736;9.092;2022-09-12T15:15:33;2.63;;;1.80;;
8913;SDS011;4492;48.736;9.092;2022-09-12T15:17:59;6.67;;;4.20;;
8913;SDS011;4492;48.736;9.092;2022-09-12T15:20:24;2.07;;;1.40;;
8913;SDS011;4492;48.736;9.092;2022-09-12T15:22:50;2.43;;;1.80;;
8913;SDS011;4492;48.736;9.092;2022-09-12T15:25:16;1.50;;;1.40;;
8913;SDS011;4492;48.736;9.092;2022-09-12T15:27:42;3.23;;;1.10;;
8913;SDS011;4492;48.736;9.092;2022-09-12T15:30:12;2.83;;;1.50;;
8913;SDS011;4492;48.736;9.092;2022-09-12T15:32:39;1.10;;;1.00;;
8913;SDS011;4492;48.736;9.092;2022-09-12T15:35:23;1.10;;;1.10;;
8913;SDS011;4492;48.736;9.092;2022-09-12T15:37:49;1.10;;;1.10;;
8913;SDS011;4492;48.736;9.092;2022-09-12T15:40:15;1.60;;;1.50;;
8913;SDS011;4492;48.736;9.092;2022-09-12T15:42:41;1.40;;;1.30;;
8913;SDS011;4492;48.736;9.092;2022-09-12T15:47:41;1.20;;;1.20;;
8913;SDS011;4492;48.736;9.092;2022-09-12T15:50:07;1.70;;;1.27;;
8913;SDS011;4492;48.736;9.092;2022-09-12T15:52:32;3.13;;;1.40;;
8913;SDS011;4492;48.736;9.092;2022-09-12T15:54:58;1.20;;;1.10;;
8913;SDS011;4492;48.736;9.092;2022-09-12T15:57:24;1.60;;;1.50;;
8913;SDS011;4492;48.736;9.092;2022-09-12T15:59:49;1.57;;;1.40;;
8913;SDS011;4492;48.736;9.092;2022-09-12T16:02:15;3.80;;;1.50;;
8913;SDS011;4492;48.736;9.092;2022-09-12T16:04:40;3.00;;;2.10;;
8913;SDS011;4492;48.736;9.092;2022-09-12T16:07:06;1.67;;;1.60;;
8913;SDS011;4492;48.736;9.092;2022-09-12T16:09:31;2.40;;;1.57;;
8913;SDS011;4492;48.736;9.092;2022-09-12T16:11:57;1.20;;;1.20;;
8913;SDS011;4492;48.736;9.092;2022-09-12T16:14:23;1.53;;;1.50;;
8913;SDS011;4492;48.736;9.092;2022-09-12T16:16:51;1.57;;;1.40;;
8913;SDS011;4492;48.736;9.092;2022-09-12T16:19:18;1.17;;;1.17;;
8913;SDS011;4492;48.736;9.092;2022-09-12T16:21:44;1.30;;;1.30;;
8913;SDS011;4492;48.736;9.092;2022-09-12T16:24:10;1.67;;;1.37;;
8913;SDS011;4492;48.736;9.092;2022-09-12T16:26:36;1.50;;;1.37;;
8913;SDS011;4492;48.736;9.092;2022-09-12T16:29:01;1.70;;;1.60;;
8913;SDS011;4492;48.736;9.092;2022-09-12T16:31:27;1.63;;;1.53;;
8913;SDS011;4492;48.736;9.092;2022-09-12T16:33:53;1.43;;;1.33;;
8913;SDS011;4492;48.736;9.092;2022-09-12T16:36:19;1.57;;;1.47;;
8913;SDS011;4492;48.736;9.092;2022-09-12T16:38:54;1.50;;;1.40;;
8913;SDS011;4492;48.736;9.092;2022-09-12T16:41:21;1.50;;;1.40;;
8913;SDS011;4492;48.736;9.092;2022-09-12T16:43:50;2.17;;;1.53;;
8913;SDS011;4492;48.736;9.092;2022-09-12T16:46:18;2.77;;;1.70;;
8913;SDS011;4492;48.736;9.092;2022-09-12T16:48:50;1.90;;;1.80;;
8913;SDS011;4492;48.736;9.092;2022-09-12T16:51:18;2.00;;;1.90;;
8913;SDS011;4492;48.736;9.092;2022-09-12T16:53:45;2.53;;;2.40;;
8913;SDS011;4492;48.736;9.092;2022-09-12T16:56:12;2.00;;;1.90;;
8913;SDS011;4492;48.736;9.092;2022-09-12T16:58:38;2.03;;;1.80;;
8913;SDS011;4492;48.736;9.092;2022-09-12T17:03:31;2.60;;;1.90;;
8913;SDS011;4492;48.736;9.092;2022-09-12T17:06:04;2.30;;;1.67;;
8913;SDS011;4492;48.736;9.092;2022-09-12T17:08:32;1.70;;;1.60;;
8913;SDS011;4492;48.736;9.092;2022-09-12T17:11:09;1.70;;;1.60;;
8913;SDS011;4492;48.736;9.092;2022-09-12T17:13:36;1.97;;;1.87;;
8913;SDS011;4492;48.736;9.092;2022-09-12T17:16:06;2.37;;;1.40;;
8913;SDS011;4492;48.736;9.092;2022-09-12T17:18:38;1.80;;;1.70;;
8913;SDS011;4492;48.736;9.092;2022-09-12T17:21:07;1.80;;;1.70;;
8913;SDS011;4492;48.736;9.092;2022-09-12T17:23:34;2.07;;;1.77;;
8913;SDS011;4492;48.736;9.092;2022-09-12T17:26:00;1.70;;;1.60;;
8913;SDS011;4492;48.736;9.092;2022-09-12T17:28:26;3.63;;;2.97;;
8913;SDS011;4492;48.736;9.092;2022-09-12T17:31:03;3.20;;;2.90;;
8913;SDS011;4492;48.736;9.092;2022-09-12T17:33:39;3.03;;;2.83;;
8913;SDS011;4492;48.736;9.092;2022-09-12T17:36:06;4.00;;;2.60;;
8913;SDS011;4492;48.736;9.092;2022-09-12T17:38:34;3.80;;;2.67;;
8913;SDS011;4492;48.736;9.092;2022-09-12T17:43:46;2.70;;;2.50;;
8913;SDS011;4492;48.736;9.092;2022-09-12T17:46:15;3.07;;;2.30;;
8913;SDS011;4492;48.736;9.092;2022-09-12T17:48:43;3.33;;;2.20;;
8913;SDS011;4492;48.736;9.092;2022-09-12T17:51:10;2.80;;;2.60;;
8913;SDS011;4492;48.736;9.092;2022-09-12T17:53:37;3.57;;;2.30;;
8913;SDS011;4492;48.736;9.092;2022-09-12T17:56:04;2.50;;;2.30;;